• Join FlightAware (Why Join?)
  • Login
  • US Flag 
08:51AM EST


 

Airport Tracker/Info


-or-


 

Live Flight TrackerFlight Track Log ✈ ASQ6115 ✈ 25-Apr-2013 ✈ KMSN - KORD

Flight Track Log - Related Links

Times and Time Zones

All times are in EDT time to prevent confusion due to time zone crossing. See the ASQ6115 flight status page for this flight to view local times or setup timezone preferences in your user account.

Time Position Orientation Groundspeed Altitude Reporting Facility
EDT Latitude Longitude Course Direction KTS MPH feet Rate Location/Type
09:30PM 43.0258 -89.3017 164° South 233 268 7,100  Level Chicago Center
09:31PM 42.9517 -89.2708 163° South 267 307 9,800 2,100 Climbing Chicago Center
09:32PM 42.8644 -89.2159 166° South  Level FlightAware Approximate
09:32PM 42.8631 -89.2350 163° South 319 367 11,500  Level Chicago Center
09:33PM 42.7950 -89.1946 170° South  Level FlightAware Approximate
09:33PM 42.7631 -89.1911 162° South 365 420 12,600  Level Chicago Center
09:34PM 42.7260 -89.1726 162° South  Level FlightAware Approximate
09:34PM 42.6594 -89.1486 163° South 384 442 13,000  Level Chicago Center
09:35PM 42.5494 -89.0619 150° Southeast 407 468 13,000  Level Chicago Center
09:36PM 42.5031 -88.9250 115° Southeast 405 466 13,000 -300 Level Chicago Center
09:37PM 42.4617 -88.7894 112° Southeast 398 458 12,400 -900 Descending Chicago Center
09:38PM 42.4219 -88.6569 112° Southeast 386 444 11,200 -1,200 Descending Chicago Center
09:39PM 42.3819 -88.5236 112° Southeast 384 442 10,000 -600 Descending Chicago Center
09:40PM 42.3314 -88.3753 115° Southeast 376 433 10,000  Level Chicago Center
09:41PM 42.2700 -88.2725 129° Southeast 383 441 10,000 -180 Level Chicago Center
09:42PM 42.2097 -88.1703 129° Southeast 349 402 9,700 -900 Descending Chicago Center
09:43PM 42.1486 -88.0928 137° Southeast 309 356 8,200 -1,320 Descending Chicago Center
09:44PM 42.0919 -87.9953 128° Southeast 280 322 7,000 -600 Descending Chicago Center
09:45PM 42.0908 -87.8936 91° East 268 308 7,000 -480 Level Chicago Center
09:47PM 42.0917 -87.8028 89° East 249 287 6,100 -1,380 Descending Chicago Center
09:47PM 42.0833 -87.7167 97° East 226 260 4,300 -1,080 Descending Chicago TRACON
09:48PM 42.0500 -87.6667 132° Southeast 220 253 4,000 -300 Descending Chicago TRACON